Time;durP1;ratioP1;P1;durP2;ratioP2;P2;SDS_P1;SDS_P2;PMS_P1;PMS_P2;Temp;Humidity;BMP_temperature;BMP_pressure;BME280_temperature;BME280_humidity;BME280_pressure;Samples;Min_cycle;Max_cycle;Signal;HPM_P1;HPM_P2
2023/12/27 00:02:14;;;;;;;;;;;;;;;7.16;100.00;100184.41;5003268;28;19918;-89
2023/12/27 00:04:39;;;;;;;;;;;;;;;7.14;100.00;100194.13;5003275;28;19929;-93
2023/12/27 00:07:04;;;;;;;;;;;;;;;7.07;100.00;100196.91;5003445;28;19918;-89
2023/12/27 00:09:29;;;;;;;;;;;;;;;7.12;100.00;100193.31;5004247;28;20321;-93
2023/12/27 00:11:55;;;;;;;;;;;;;;;7.16;100.00;100192.31;5004698;28;20040;-91
2023/12/27 00:14:20;;;;;;;;;;;;;;;7.22;100.00;100186.91;5004924;28;20008;-83
2023/12/27 00:16:45;;;;;;;;;;;;;;;7.32;100.00;100191.06;5004805;28;19954;-83
2023/12/27 06:12:36;;;;;;;;;;;;;;;7.03;100.00;100095.09;5738727;23;20304;-81
2023/12/27 06:15:02;;;;;;;;;;;;;;;6.99;100.00;100080.28;5002414;28;19930;-82
2023/12/27 06:17:27;;;;;;;;;;;;;;;7.06;100.00;100076.56;5001086;28;19926;-83
2023/12/27 06:19:52;;;;;;;;;;;;;;;7.03;100.00;100081.91;5000800;28;19924;-82
2023/12/27 06:22:18;;;;;;;;;;;;;;;7.07;100.00;100088.00;5002653;28;20327;-83
2023/12/27 06:24:43;;;;;;;;;;;;;;;7.07;100.00;100104.66;5002407;28;19925;-81
2023/12/27 06:27:10;;;;;;;;;;;;;;;7.09;100.00;100115.16;5001054;28;20017;-83
2023/12/27 06:29:35;;;;;;;;;;;;;;;7.08;100.00;100122.22;5001346;28;19961;-81
2023/12/27 06:32:02;;;;;;;;;;;;;;;7.13;100.00;100123.88;5002368;28;20011;-83
2023/12/27 06:34:28;;;;;;;;;;;;;;;7.17;100.00;100120.28;5002646;28;19922;-83
2023/12/27 06:36:53;;;;;;;;;;;;;;;7.18;100.00;100114.97;5002376;28;20368;-81
2023/12/27 06:39:18;;;;;;;;;;;;;;;7.18;100.00;100093.88;5002399;28;19944;-82
2023/12/27 06:41:44;;;;;;;;;;;;;;;7.18;100.00;100082.44;5001299;28;20016;-81
2023/12/27 06:44:09;;;;;;;;;;;;;;;7.22;100.00;100071.81;5002611;28;19921;-82
2023/12/27 06:46:34;;;;;;;;;;;;;;;7.17;100.00;100057.03;5000817;28;19922;-81
2023/12/27 06:49:00;;;;;;;;;;;;;;;7.19;100.00;100061.34;5002064;28;19918;-82
2023/12/27 06:51:25;;;;;;;;;;;;;;;7.22;100.00;100060.41;5001115;28;20254;-81
2023/12/27 06:53:50;;;;;;;;;;;;;;;7.22;100.00;100076.22;5002426;28;19957;-81
2023/12/27 06:56:16;;;;;;;;;;;;;;;7.24;100.00;100074.41;5000907;28;20297;-83
2023/12/27 06:58:41;;;;;;;;;;;;;;;7.30;100.00;100066.34;5002034;28;19981;-84
2023/12/27 07:01:07;;;;;;;;;;;;;;;8.89;100.00;100061.94;5002501;28;20323;-80
2023/12/27 07:03:32;;;;;;;;;;;;;;;9.17;100.00;100055.75;5002172;28;19922;-83
2023/12/27 07:05:57;;;;;;;;;;;;;;;6.50;100.00;100057.69;5000780;28;20323;-81
2023/12/27 07:08:22;;;;;;;;;;;;;;;6.04;100.00;100059.50;5001849;28;19921;-85
2023/12/27 07:10:48;;;;;;;;;;;;;;;5.93;100.00;100053.53;5002426;28;19963;-87
2023/12/27 07:13:13;;;;;;;;;;;;;;;5.88;100.00;100061.53;5006383;28;19925;-88
2023/12/27 07:15:39;;;;;;;;;;;;;;;5.74;100.00;100060.91;5002703;28;19918;-85
2023/12/27 07:18:04;;;;;;;;;;;;;;;5.59;100.00;100055.03;5003841;28;19924;-88
2023/12/27 07:20:30;;;;;;;;;;;;;;;12.03;100.00;100027.09;5021901;28;19917;-75
2023/12/27 07:22:56;;;;;;;;;;;;;;;12.85;100.00;100006.41;5021550;28;19917;-79
2023/12/27 07:25:21;;;;;;;;;;;;;;;7.97;100.00;100016.19;5021272;28;20388;-83
2023/12/27 07:27:47;;;;;;;;;;;;;;;6.27;100.00;100032.72;5002596;28;20024;-81
2023/12/27 07:30:12;;;;;;;;;;;;;;;5.81;100.00;100044.16;5023222;28;19921;-81
2023/12/27 07:32:38;;;;;;;;;;;;;;;5.63;100.00;100030.44;5024955;28;19917;-81
2023/12/27 07:35:04;;;;;;;;;;;;;;;5.52;100.00;100016.63;5025221;28;19923;-81
2023/12/27 07:37:30;;;;;;;;;;;;;;;5.37;100.00;100023.03;5023714;28;19917;-84
2023/12/27 07:39:56;;;;;;;;;;;;;;;5.27;100.00;100040.72;5024718;28;20339;-82
2023/12/27 07:42:21;;;;;;;;;;;;;;;5.22;100.00;100039.06;5024196;28;19917;-81
2023/12/27 07:44:47;;;;;;;;;;;;;;;5.17;100.00;100020.75;5025196;28;20349;-81
2023/12/27 07:47:12;;;;;;;;;;;;;;;5.09;100.00;100020.03;5024696;28;20383;-81
2023/12/27 07:49:37;;;;;;;;;;;;;;;5.08;100.00;100029.66;5024606;28;19921;-82
2023/12/27 07:52:03;;;;;;;;;;;;;;;4.98;100.00;100040.31;5024598;28;19944;-80
2023/12/27 08:52:27;;;;;;;;;;;;;;;4.41;100.00;100015.78;5341729;23;20014;-88
2023/12/27 08:54:53;;;;;;;;;;;;;;;4.48;100.00;100020.09;5026543;28;19925;-89
2023/12/27 08:57:18;;;;;;;;;;;;;;;4.47;100.00;100014.84;5053512;28;19924;-91
2023/12/27 08:59:44;;;;;;;;;;;;;;;4.36;100.00;100026.34;5053308;28;20406;-91
2023/12/27 09:02:10;;;;;;;;;;;;;;;4.34;100.00;100025.50;5053259;28;19920;-90
2023/12/27 09:04:35;;;;;;;;;;;;;;;4.30;100.00;100025.56;5053502;28;19943;-91
2023/12/27 09:07:00;;;;;;;;;;;;;;;4.28;100.00;100016.88;5051906;28;19917;-83
2023/12/27 09:09:26;;;;;;;;;;;;;;;4.30;100.00;100009.81;5053286;28;19917;-88
2023/12/27 09:11:51;;;;;;;;;;;;;;;4.42;100.00;100007.03;5053082;28;19917;-89
2023/12/27 09:14:16;;;;;;;;;;;;;;;4.36;100.00;100005.34;5053137;28;19970;-86
2023/12/27 09:16:42;;;;;;;;;;;;;;;4.32;100.00;100005.41;5053114;28;20110;-87
2023/12/27 09:19:07;;;;;;;;;;;;;;;4.33;100.00;100004.53;5052057;28;19979;-87
2023/12/27 09:21:33;;;;;;;;;;;;;;;4.27;100.00;100004.63;5051210;28;19920;-88
2023/12/27 09:23:58;;;;;;;;;;;;;;;4.29;100.00;100003.72;5051148;28;19919;-88
2023/12/27 09:26:23;;;;;;;;;;;;;;;4.26;100.00;100003.75;5034689;28;19917;-89
2023/12/27 09:28:48;;;;;;;;;;;;;;;4.34;100.00;99998.38;5052827;28;20338;-89
2023/12/27 09:31:14;;;;;;;;;;;;;;;4.31;100.00;99990.59;5052727;28;20257;-88
2023/12/27 09:33:42;;;;;;;;;;;;;;;4.32;100.00;99993.19;5052756;28;19921;-89
2023/12/27 09:36:07;;;;;;;;;;;;;;;4.25;100.00;100002.03;5051330;28;19913;-87
2023/12/27 09:38:33;;;;;;;;;;;;;;;4.28;100.00;100016.88;5052529;28;20438;-90
2023/12/27 09:40:58;;;;;;;;;;;;;;;4.29;100.00;100013.34;5052577;28;19916;-90
2023/12/27 09:43:24;;;;;;;;;;;;;;;4.28;100.00;100001.13;5052538;28;19935;-88
2023/12/27 09:45:51;;;;;;;;;;;;;;;4.23;100.00;100005.53;5033906;28;19924;-89
2023/12/27 09:48:18;;;;;;;;;;;;;;;4.24;100.00;100015.16;5052534;28;19921;-88
2023/12/27 09:50:44;;;;;;;;;;;;;;;4.24;100.00;100009.91;5051096;28;19916;-87
2023/12/27 09:53:09;;;;;;;;;;;;;;;4.22;100.00;100011.69;5052302;28;19921;-83
2023/12/27 09:55:34;;;;;;;;;;;;;;;4.20;100.00;100014.34;5034427;28;19921;-87
2023/12/27 09:58:00;;;;;;;;;;;;;;;4.21;100.00;99996.84;5034145;28;19917;-86
2023/12/27 10:00:28;;;;;;;;;;;;;;;4.19;100.00;99989.84;5046011;28;19925;-88
2023/12/27 10:02:58;;;;;;;;;;;;;;;4.17;100.00;99996.88;5051511;28;19979;-87
2023/12/27 10:05:26;;;;;;;;;;;;;;;4.16;100.00;99981.16;5032955;28;20011;-88
2023/12/27 10:07:51;;;;;;;;;;;;;;;4.13;100.00;99968.06;5052648;28;19923;-85
2023/12/27 10:10:18;;;;;;;;;;;;;;;4.14;100.00;99973.31;5034441;28;19916;-87
2023/12/27 10:12:43;;;;;;;;;;;;;;;4.13;100.00;99963.72;5052055;28;19966;-87
2023/12/27 10:15:08;;;;;;;;;;;;;;;4.18;100.00;99963.66;5049392;28;19925;-83
2023/12/27 10:17:34;;;;;;;;;;;;;;;4.19;100.00;99960.97;5050608;28;19955;-88
2023/12/27 10:19:59;;;;;;;;;;;;;;;4.18;100.00;99958.41;5048457;28;20011;-86
2023/12/27 10:22:25;;;;;;;;;;;;;;;4.21;100.00;99957.50;5049082;28;19975;-86
2023/12/27 10:24:50;;;;;;;;;;;;;;;4.19;100.00;99950.50;5049571;28;19921;-86
2023/12/27 10:27:16;;;;;;;;;;;;;;;4.14;100.00;99947.06;5033559;28;19999;-85
2023/12/27 10:29:46;;;;;;;;;;;;;;;4.16;100.00;99945.31;5049802;28;19921;-85
2023/12/27 10:32:11;;;;;;;;;;;;;;;4.18;100.00;99943.53;5049809;28;19928;-80
2023/12/27 10:34:37;;;;;;;;;;;;;;;4.17;100.00;99935.69;5051080;28;19916;-83
2023/12/27 10:37:07;;;;;;;;;;;;;;;4.13;100.00;99929.63;5048727;28;19955;-88
2023/12/27 10:39:32;;;;;;;;;;;;;;;4.11;100.00;99923.50;5051702;28;19948;-86
2023/12/27 10:41:58;;;;;;;;;;;;;;;4.11;100.00;99915.66;5051533;28;19967;-85
2023/12/27 10:44:24;;;;;;;;;;;;;;;4.05;100.00;99918.34;5051832;28;20019;-85
2023/12/27 10:46:49;;;;;;;;;;;;;;;4.10;100.00;99907.81;5051808;28;19991;-87
2023/12/27 10:49:15;;;;;;;;;;;;;;;4.06;100.00;99907.00;5051766;28;20415;-85
2023/12/27 10:51:41;;;;;;;;;;;;;;;4.08;100.00;99909.59;5050326;28;19913;-84
2023/12/27 10:54:07;;;;;;;;;;;;;;;4.12;100.00;99906.91;5051521;28;20291;-84
2023/12/27 10:56:37;;;;;;;;;;;;;;;4.10;100.00;99908.69;5049740;28;19920;-83
2023/12/27 10:59:04;;;;;;;;;;;;;;;4.10;100.00;99902.56;5030971;28;19925;-84
2023/12/27 11:01:31;;;;;;;;;;;;;;;4.12;100.00;99899.03;5050280;28;19933;-84
2023/12/27 11:03:57;;;;;;;;;;;;;;;4.07;100.00;99903.50;5050565;28;19927;-86
2023/12/27 11:06:23;;;;;;;;;;;;;;;4.07;100.00;99889.50;5052778;28;20452;-85
2023/12/27 11:08:49;;;;;;;;;;;;;;;4.06;100.00;99886.00;5037452;28;20011;-85
2023/12/27 11:11:15;;;;;;;;;;;;;;;4.03;100.00;99891.28;5045494;28;20044;-85
2023/12/27 11:13:41;;;;;;;;;;;;;;;4.08;100.00;99883.38;5037603;28;19916;-84
2023/12/27 11:16:07;;;;;;;;;;;;;;;4.04;100.00;99881.66;5054258;28;19924;-84
2023/12/27 11:18:34;;;;;;;;;;;;;;;4.07;100.00;99877.25;5055219;28;19959;-84
2023/12/27 11:21:00;;;;;;;;;;;;;;;4.04;100.00;99872.06;5053893;28;19927;-83
2023/12/27 11:23:25;;;;;;;;;;;;;;;4.05;100.00;99865.91;5055200;28;19920;-85
2023/12/27 11:25:52;;;;;;;;;;;;;;;4.05;100.00;99863.28;5055125;28;19991;-83
2023/12/27 11:28:17;;;;;;;;;;;;;;;4.05;100.00;99858.03;5052050;28;19925;-84
2023/12/27 11:30:43;;;;;;;;;;;;;;;4.11;100.00;99854.47;5055073;28;20014;-81
2023/12/27 11:33:10;;;;;;;;;;;;;;;4.08;100.00;99851.91;5054945;28;19920;-83
2023/12/27 11:35:35;;;;;;;;;;;;;;;4.03;100.00;99848.47;5053757;28;19960;-85
2023/12/27 11:38:13;;;;;;;;;;;;;;;4.06;100.00;99843.19;5036828;28;19920;-85
2023/12/27 11:40:39;;;;;;;;;;;;;;;4.04;100.00;99824.88;5036924;28;19923;-87
2023/12/27 11:43:04;;;;;;;;;;;;;;;4.00;100.00;99825.78;5036895;28;19916;-86
2023/12/27 11:45:48;;;;;;;;;;;;;;;3.98;100.00;99817.94;5037008;28;19996;-86
2023/12/27 11:48:14;;;;;;;;;;;;;;;4.05;100.00;99812.59;5054674;28;19960;-84
2023/12/27 11:50:39;;;;;;;;;;;;;;;4.05;100.00;99808.22;5053334;28;20387;-88
2023/12/27 11:53:04;;;;;;;;;;;;;;;4.04;100.00;99808.25;5054380;28;19921;-84
2023/12/27 11:55:31;;;;;;;;;;;;;;;4.04;100.00;99803.88;5054730;28;20008;-86
2023/12/27 11:57:57;;;;;;;;;;;;;;;4.06;100.00;99791.59;5036444;28;19944;-84
2023/12/27 12:00:24;;;;;;;;;;;;;;;4.06;100.00;99786.38;5054493;28;19963;-85
2023/12/27 12:02:51;;;;;;;;;;;;;;;4.09;100.00;99788.09;5053665;28;20022;-85
2023/12/27 12:05:26;;;;;;;;;;;;;;;4.07;100.00;99790.72;5053749;28;19967;-85
2023/12/27 12:07:59;;;;;;;;;;;;;;;4.06;100.00;99772.41;5053870;28;20798;-85
2023/12/27 12:10:26;;;;;;;;;;;;;;;4.06;100.00;99775.88;5054135;28;20361;-85
2023/12/27 12:12:52;;;;;;;;;;;;;;;4.03;100.00;99765.44;5053627;28;19913;-85
2023/12/27 12:15:19;;;;;;;;;;;;;;;4.03;100.00;99770.69;5054034;28;19920;-87
2023/12/27 12:17:48;;;;;;;;;;;;;;;4.04;100.00;99758.41;5052841;28;20015;-84
2023/12/27 12:20:13;;;;;;;;;;;;;;;4.01;100.00;99759.34;5053768;28;20375;-88
2023/12/27 12:22:39;;;;;;;;;;;;;;;4.00;100.00;99755.00;5052907;28;19917;-84
2023/12/27 12:25:06;;;;;;;;;;;;;;;3.99;100.00;99748.91;5036112;28;20007;-83
2023/12/27 12:27:31;;;;;;;;;;;;;;;4.00;100.00;99752.38;5035303;28;20296;-87
2023/12/27 12:29:56;;;;;;;;;;;;;;;3.97;100.00;99747.19;5053587;28;19921;-85
2023/12/27 12:32:22;;;;;;;;;;;;;;;3.94;100.00;99736.72;5052022;28;19932;-85
2023/12/27 12:34:47;;;;;;;;;;;;;;;4.01;100.00;99741.00;5053855;28;19925;-86
2023/12/27 12:37:14;;;;;;;;;;;;;;;4.02;100.00;99745.38;5052351;28;19924;-87
2023/12/27 12:39:39;;;;;;;;;;;;;;;4.00;100.00;99724.41;5053354;28;19935;-86
2023/12/27 12:42:05;;;;;;;;;;;;;;;3.96;100.00;99730.59;5053641;28;19928;-85
2023/12/27 12:44:31;;;;;;;;;;;;;;;4.00;100.00;99724.41;5053876;28;19967;-88
2023/12/27 12:46:57;;;;;;;;;;;;;;;4.00;100.00;99728.78;5053584;28;19917;-85
2023/12/27 12:49:22;;;;;;;;;;;;;;;3.97;100.00;99720.97;5048800;28;19913;-86
2023/12/27 12:51:49;;;;;;;;;;;;;;;3.97;100.00;99715.72;5052160;28;20015;-82
2023/12/27 12:54:14;;;;;;;;;;;;;;;3.99;100.00;99711.34;5052572;28;19927;-83
2023/12/27 12:56:40;;;;;;;;;;;;;;;3.94;100.00;99703.53;5053738;28;19917;-85
2023/12/27 12:59:07;;;;;;;;;;;;;;;3.96;100.00;99698.28;5053384;28;19925;-85
2023/12/27 13:01:32;;;;;;;;;;;;;;;3.89;100.00;99694.00;5053057;28;19917;-85
2023/12/27 13:03:58;;;;;;;;;;;;;;;3.98;100.00;99693.84;5053244;28;19912;-83
2023/12/27 13:06:24;;;;;;;;;;;;;;;3.98;100.00;99693.84;5051940;28;19917;-83
2023/12/27 13:08:54;;;;;;;;;;;;;;;3.98;100.00;99691.22;5035596;28;20252;-85
2023/12/27 13:11:21;;;;;;;;;;;;;;;4.01;100.00;99691.19;5053268;28;19927;-86
2023/12/27 13:13:46;;;;;;;;;;;;;;;4.04;100.00;99685.88;5053083;28;20383;-85
2023/12/27 13:16:11;;;;;;;;;;;;;;;3.99;100.00;99680.72;5052651;28;19935;-85
2023/12/27 13:18:38;;;;;;;;;;;;;;;4.01;100.00;99685.94;5052995;28;19974;-87
2023/12/27 13:21:04;;;;;;;;;;;;;;;4.00;100.00;99676.34;5051519;28;20386;-85
2023/12/27 13:23:29;;;;;;;;;;;;;;;3.98;100.00;99675.50;5052923;28;19917;-85
2023/12/27 13:25:54;;;;;;;;;;;;;;;4.07;100.00;99683.22;5052934;28;20086;-91
2023/12/27 13:28:25;;;;;;;;;;;;;;;4.03;100.00;99671.03;5052358;28;19927;-83
2023/12/27 13:30:50;;;;;;;;;;;;;;;4.00;100.00;99671.97;5052254;28;20427;-86
2023/12/27 13:33:15;;;;;;;;;;;;;;;3.98;100.00;99667.63;5052592;28;20007;-88
2023/12/27 13:35:41;;;;;;;;;;;;;;;3.98;100.00;99665.88;5051372;28;20213;-84
2023/12/27 13:38:06;;;;;;;;;;;;;;;3.97;100.00;99665.91;5052475;28;19966;-85
2023/12/27 13:40:34;;;;;;;;;;;;;;;4.01;100.00;99667.59;5034480;28;20018;-84
2023/12/27 13:42:59;;;;;;;;;;;;;;;4.01;100.00;99657.09;5051943;28;19947;-81
2023/12/27 13:45:24;;;;;;;;;;;;;;;4.07;100.00;99662.22;5052364;28;19923;-86
2023/12/27 13:47:49;;;;;;;;;;;;;;;4.08;100.00;99658.69;5029974;28;19964;-83
2023/12/27 13:50:15;;;;;;;;;;;;;;;4.05;100.00;99652.66;5052233;28;19971;-85
2023/12/27 13:52:40;;;;;;;;;;;;;;;4.04;100.00;99659.66;5050836;28;19920;-86
2023/12/27 13:55:05;;;;;;;;;;;;;;;3.99;100.00;99656.28;5052172;28;19943;-85
2023/12/27 13:57:30;;;;;;;;;;;;;;;4.03;100.00;99650.06;5051482;28;20020;-83
2023/12/27 13:59:56;;;;;;;;;;;;;;;4.10;100.00;99653.44;5043252;28;20019;-84
2023/12/27 14:02:21;;;;;;;;;;;;;;;4.12;100.00;99651.66;5049969;28;19976;-91
2023/12/27 14:04:46;;;;;;;;;;;;;;;4.08;100.00;99652.59;5050444;28;19921;-89
2023/12/27 14:07:12;;;;;;;;;;;;;;;4.00;100.00;99650.13;5047276;28;19925;-87
2023/12/27 14:09:39;;;;;;;;;;;;;;;3.99;100.00;99633.53;5051131;28;19924;-87
2023/12/27 14:12:04;;;;;;;;;;;;;;;3.97;100.00;99639.69;5031108;28;19921;-85
2023/12/27 14:14:32;;;;;;;;;;;;;;;3.96;100.00;99638.81;5047903;28;20003;-83
2023/12/27 14:16:58;;;;;;;;;;;;;;;3.97;100.00;99634.44;5050434;28;19929;-90
2023/12/27 14:19:23;;;;;;;;;;;;;;;3.99;100.00;99632.69;5031646;28;20363;-86
2023/12/27 14:21:49;;;;;;;;;;;;;;;4.03;100.00;99629.09;5050097;28;19928;-89
2023/12/27 14:24:14;;;;;;;;;;;;;;;3.98;100.00;99621.31;5051144;28;19917;-92
2023/12/27 14:26:42;;;;;;;;;;;;;;;3.97;100.00;99618.72;5050686;28;19969;-85
2023/12/27 14:29:07;;;;;;;;;;;;;;;3.97;100.00;99623.94;5049694;28;19921;-84
2023/12/27 14:31:32;;;;;;;;;;;;;;;3.89;100.00;99621.47;5050603;28;19924;-88
2023/12/27 14:33:57;;;;;;;;;;;;;;;3.95;100.00;99618.72;5046192;28;20068;-85
2023/12/27 14:36:23;;;;;;;;;;;;;;;3.90;100.00;99609.25;5030359;28;20043;-85
2023/12/27 14:38:53;;;;;;;;;;;;;;;3.93;100.00;99607.41;5048228;28;20402;-81
2023/12/27 14:41:19;;;;;;;;;;;;;;;3.92;100.00;99604.81;5052969;28;20054;-84
2023/12/27 14:43:44;;;;;;;;;;;;;;;3.89;100.00;99610.13;5053803;28;20007;-89
2023/12/27 14:46:10;;;;;;;;;;;;;;;3.85;100.00;99605.84;5052166;28;19960;-92
2023/12/27 14:48:35;;;;;;;;;;;;;;;3.88;100.00;99609.28;5055614;28;19975;-86
2023/12/27 14:51:01;;;;;;;;;;;;;;;3.88;100.00;99611.00;5053684;28;19975;-89
2023/12/27 14:53:26;;;;;;;;;;;;;;;3.93;100.00;99606.56;5053095;28;19921;-86
2023/12/27 14:55:51;;;;;;;;;;;;;;;3.91;100.00;99608.31;5037100;28;20338;-87
2023/12/27 14:58:17;;;;;;;;;;;;;;;3.95;100.00;99617.88;5036699;28;19956;-87
2023/12/27 15:00:42;;;;;;;;;;;;;;;3.93;100.00;99614.44;5033683;28;19921;-82
2023/12/27 15:03:07;;;;;;;;;;;;;;;3.84;100.00;99623.31;5052931;28;19947;-84
2023/12/27 15:05:32;;;;;;;;;;;;;;;3.86;100.00;99611.06;5054531;28;19924;-91
2023/12/27 15:07:58;;;;;;;;;;;;;;;3.82;100.00;99615.47;5038248;28;19955;-82
2023/12/27 15:10:23;;;;;;;;;;;;;;;3.80;100.00;99601.53;5055875;28;19924;-89
2023/12/27 15:12:48;;;;;;;;;;;;;;;3.80;100.00;99606.78;5037196;28;19921;-86
2023/12/27 15:15:16;;;;;;;;;;;;;;;3.77;100.00;99601.59;5055265;28;19919;-85
2023/12/27 15:17:41;;;;;;;;;;;;;;;3.82;100.00;99601.50;5055013;28;20011;-88
2023/12/27 15:20:07;;;;;;;;;;;;;;;3.76;100.00;99599.00;5055801;28;19983;-90
2023/12/27 15:22:33;;;;;;;;;;;;;;;3.77;100.00;99601.59;5052525;28;19962;-90
2023/12/27 15:24:59;;;;;;;;;;;;;;;3.86;100.00;99594.44;5055637;28;19920;-88
2023/12/27 15:27:24;;;;;;;;;;;;;;;3.84;100.00;99588.38;5055002;28;19970;-85
2023/12/27 15:29:56;;;;;;;;;;;;;;;3.80;100.00;99587.59;5054902;28;19921;-87
2023/12/27 15:32:21;;;;;;;;;;;;;;;3.87;100.00;99583.09;5036839;28;20376;-88
2023/12/27 15:34:47;;;;;;;;;;;;;;;3.80;100.00;99570.09;5037145;28;20024;-89
2023/12/27 15:37:16;;;;;;;;;;;;;;;3.75;100.00;99577.19;5053896;28;20287;-85
2023/12/27 15:39:41;;;;;;;;;;;;;;;3.74;100.00;99567.56;5053796;28;19927;-85
2023/12/27 15:42:06;;;;;;;;;;;;;;;3.72;100.00;99566.75;5054845;28;20303;-86
2023/12/27 15:44:32;;;;;;;;;;;;;;;3.75;100.00;99579.81;5054690;28;19920;-87
2023/12/27 15:46:57;;;;;;;;;;;;;;;3.77;100.00;99570.13;5054839;28;20040;-89
2023/12/27 15:49:22;;;;;;;;;;;;;;;3.79;100.00;99565.72;5054757;28;20004;-82
2023/12/27 15:51:47;;;;;;;;;;;;;;;3.75;100.00;99566.69;5053575;28;20367;-83
2023/12/27 15:54:13;;;;;;;;;;;;;;;3.77;100.00;99569.28;5033368;28;20342;-89
2023/12/27 15:56:41;;;;;;;;;;;;;;;3.76;100.00;99568.41;5033374;28;20667;-87
2023/12/27 15:59:07;;;;;;;;;;;;;;;3.74;100.00;99564.09;5034719;28;19925;-88
2023/12/27 16:01:36;;;;;;;;;;;;;;;3.78;100.00;99556.16;5034699;28;20380;-88
2023/12/27 16:04:03;;;;;;;;;;;;;;;3.76;100.00;99552.69;5033415;28;19913;-92
2023/12/27 16:06:29;;;;;;;;;;;;;;;3.80;100.00;99546.50;5032864;28;19921;-89
2023/12/27 16:08:55;;;;;;;;;;;;;;;3.85;100.00;99548.19;5033428;28;19925;-88
2023/12/27 16:11:20;;;;;;;;;;;;;;;3.76;100.00;99552.69;5033786;28;19917;-85
2023/12/27 16:13:46;;;;;;;;;;;;;;;3.75;100.00;99556.22;5032863;28;20296;-84
2023/12/27 16:16:12;;;;;;;;;;;;;;;3.73;100.00;99557.13;5032523;28;19979;-85
2023/12/27 16:18:37;;;;;;;;;;;;;;;3.76;100.00;99564.94;5032839;28;20011;-91
2023/12/27 16:21:04;;;;;;;;;;;;;;;3.76;100.00;99562.31;5025591;28;20013;-83
2023/12/27 16:23:30;;;;;;;;;;;;;;;3.75;100.00;99565.81;5018936;28;19918;-84
2023/12/27 16:25:56;;;;;;;;;;;;;;;3.71;100.00;99564.16;5021717;28;19975;-88
2023/12/27 16:28:21;;;;;;;;;;;;;;;3.70;100.00;99559.78;5023602;28;20354;-86
2023/12/27 16:30:48;;;;;;;;;;;;;;;4.48;100.00;99563.50;5024738;28;19964;-83
2023/12/27 16:33:14;;;;;;;;;;;;;;;5.08;100.00;99556.88;5023442;28;19944;-81
2023/12/27 16:35:39;;;;;;;;;;;;;;;5.41;100.00;99554.31;5022487;28;20431;-82
2023/12/27 16:38:05;;;;;;;;;;;;;;;5.56;100.00;99558.31;5021712;28;20399;-79
2023/12/27 16:40:30;;;;;;;;;;;;;;;5.71;100.00;99558.81;5022737;28;20368;-85
2023/12/27 16:42:55;;;;;;;;;;;;;;;5.85;100.00;99566.34;5023046;28;19973;-81
2023/12/27 16:45:31;;;;;;;;;;;;;;;5.97;100.00;99560.78;5023324;28;20031;-88
2023/12/27 16:48:00;;;;;;;;;;;;;;;6.06;100.00;99559.66;5023418;28;19932;-86
2023/12/27 16:50:27;;;;;;;;;;;;;;;6.09;100.00;99559.56;5021920;28;20385;-81
2023/12/27 16:52:55;;;;;;;;;;;;;;;6.17;100.00;99562.84;5024666;28;19921;-82
2023/12/27 16:55:20;;;;;;;;;;;;;;;6.20;100.00;99554.88;5025179;28;20300;-86
2023/12/27 16:57:45;;;;;;;;;;;;;;;6.26;100.00;99559.94;5040638;28;19929;-80
2023/12/27 17:00:13;;;;;;;;;;;;;;;6.30;100.00;99548.44;5024171;28;20288;-88
2023/12/27 17:02:39;;;;;;;;;;;;;;;6.33;100.00;99536.94;5023187;28;19925;-87
2023/12/27 17:05:04;;;;;;;;;;;;;;;6.41;100.00;99539.34;5025181;28;19943;-85
2023/12/27 17:07:30;;;;;;;;;;;;;;;6.40;100.00;99529.72;5023297;28;19917;-84
2023/12/27 17:09:55;;;;;;;;;;;;;;;6.44;100.00;99528.75;5042298;28;19931;-90
2023/12/27 17:12:20;;;;;;;;;;;;;;;6.46;100.00;99532.19;5024803;28;19917;-82
2023/12/27 17:14:46;;;;;;;;;;;;;;;6.49;100.00;99535.59;5043035;28;19928;-82
2023/12/27 17:17:11;;;;;;;;;;;;;;;6.47;100.00;99549.72;5042801;28;19920;-85
2023/12/27 17:19:36;;;;;;;;;;;;;;;6.54;100.00;99546.84;5025185;28;20031;-85
2023/12/27 17:22:02;;;;;;;;;;;;;;;6.51;100.00;99546.06;5040911;28;19916;-87
2023/12/27 17:24:27;;;;;;;;;;;;;;;7.34;100.00;99546.09;5041908;28;19917;-81
2023/12/27 17:26:52;;;;;;;;;;;;;;;7.59;100.00;99545.25;5043335;28;20396;-92
2023/12/27 17:29:18;;;;;;;;;;;;;;;7.22;100.00;99541.22;5041352;28;19921;-84
2023/12/27 17:31:44;;;;;;;;;;;;;;;7.13;100.00;99544.16;5025677;28;20008;-92
2023/12/27 17:34:09;;;;;;;;;;;;;;;7.10;100.00;99539.88;5041566;28;19925;-88
2023/12/27 17:36:34;;;;;;;;;;;;;;;7.05;100.00;99540.00;5023194;28;19942;-86
2023/12/27 17:39:00;;;;;;;;;;;;;;;7.08;100.00;99534.63;5042251;28;19943;-83
2023/12/27 17:41:25;;;;;;;;;;;;;;;7.09;100.00;99536.34;5025002;28;19920;-87
2023/12/27 17:43:50;;;;;;;;;;;;;;;7.17;100.00;99530.81;5021597;28;19979;-86
2023/12/27 17:46:16;;;;;;;;;;;;;;;7.16;100.00;99530.88;5040024;28;19932;-86
2023/12/27 17:48:43;;;;;;;;;;;;;;;7.11;100.00;99530.16;5042468;28;19923;-85
2023/12/27 17:51:09;;;;;;;;;;;;;;;7.11;100.00;99524.91;5041008;28;20403;-86
2023/12/27 17:53:34;;;;;;;;;;;;;;;7.11;100.00;99517.00;5035939;28;19960;-84
2023/12/27 17:56:00;;;;;;;;;;;;;;;7.11;100.00;99519.63;5041196;28;19924;-86
2023/12/27 17:58:26;;;;;;;;;;;;;;;7.11;100.00;99517.00;5037596;28;20012;-84
2023/12/27 18:00:52;;;;;;;;;;;;;;;7.07;100.00;99519.72;5039614;28;20414;-84
2023/12/27 18:03:17;;;;;;;;;;;;;;;7.06;100.00;99523.25;5041584;28;19916;-85
2023/12/27 18:05:42;;;;;;;;;;;;;;;7.04;100.00;99522.47;5040593;28;19945;-84
2023/12/27 18:08:08;;;;;;;;;;;;;;;7.03;100.00;99518.09;5038899;28;19947;-85
2023/12/27 18:10:33;;;;;;;;;;;;;;;7.12;100.00;99521.38;5039399;28;20360;-82
2023/12/27 18:12:58;;;;;;;;;;;;;;;7.06;100.00;99525.06;5040366;28;19925;-88
2023/12/27 18:15:24;;;;;;;;;;;;;;;7.07;100.00;99524.16;5036132;28;20395;-83
2023/12/27 18:17:49;;;;;;;;;;;;;;;7.00;100.00;99533.16;5040016;28;19936;-85
2023/12/27 18:20:15;;;;;;;;;;;;;;;6.94;100.00;99539.50;5023121;28;20527;-83
2023/12/27 18:22:40;;;;;;;;;;;;;;;6.89;100.00;99534.38;5035610;28;19925;-85
2023/12/27 18:25:06;;;;;;;;;;;;;;;6.83;100.00;99541.56;5024559;28;19927;-84
2023/12/27 18:27:32;;;;;;;;;;;;;;;6.82;100.00;99540.72;5037104;28;19925;-85
2023/12/27 18:30:01;;;;;;;;;;;;;;;6.87;100.00;99536.16;5022885;28;19962;-81
2023/12/27 18:32:28;;;;;;;;;;;;;;;6.96;100.00;99531.53;5041013;28;20372;-88
2023/12/27 18:34:55;;;;;;;;;;;;;;;6.99;100.00;99534.03;5039341;28;19971;-84
2023/12/27 18:37:22;;;;;;;;;;;;;;;7.05;100.00;99528.59;5018405;28;19924;-84
2023/12/27 18:39:48;;;;;;;;;;;;;;;7.07;100.00;99519.72;5023665;28;19920;-83
2023/12/27 18:42:14;;;;;;;;;;;;;;;7.05;100.00;99524.19;5021897;28;19975;-86
2023/12/27 18:44:42;;;;;;;;;;;;;;;7.11;100.00;99519.63;5037454;28;19921;-84
2023/12/27 18:47:08;;;;;;;;;;;;;;;7.18;100.00;99526.41;5038967;28;19921;-88
2023/12/27 18:49:38;;;;;;;;;;;;;;;7.18;100.00;99527.28;5023774;28;19979;-89
2023/12/27 18:52:05;;;;;;;;;;;;;;;7.22;100.00;99543.84;5021439;28;19921;-85
2023/12/27 18:54:31;;;;;;;;;;;;;;;7.22;100.00;99546.50;5036722;28;19927;-92
2023/12/27 18:56:56;;;;;;;;;;;;;;;7.26;100.00;99542.84;5042949;28;19999;-84
2023/12/27 18:59:21;;;;;;;;;;;;;;;7.31;100.00;99535.66;5040267;28;19972;-87
2023/12/27 19:01:47;;;;;;;;;;;;;;;7.30;100.00;99546.25;5037699;28;19925;-82
2023/12/27 19:04:12;;;;;;;;;;;;;;;7.34;100.00;99546.09;5036866;28;19968;-86
2023/12/27 19:06:37;;;;;;;;;;;;;;;7.43;100.00;99551.03;5037315;28;19921;-85
2023/12/27 19:09:02;;;;;;;;;;;;;;;7.44;100.00;99565.94;5039257;28;19948;-86
2023/12/27 19:11:28;;;;;;;;;;;;;;;7.43;100.00;99568.63;5022041;28;19918;-81
2023/12/27 19:13:54;;;;;;;;;;;;;;;7.48;100.00;99558.78;5022594;28;19924;-87
2023/12/27 19:16:19;;;;;;;;;;;;;;;7.51;100.00;99561.31;5041000;28;19949;-86
2023/12/27 19:18:45;;;;;;;;;;;;;;;7.49;100.00;99562.31;5035922;28;19925;-83
2023/12/27 19:21:14;;;;;;;;;;;;;;;7.55;100.00;99544.50;5037762;28;19933;-92
2023/12/27 19:23:39;;;;;;;;;;;;;;;7.59;100.00;99547.88;5040830;28;19917;-87
2023/12/27 19:26:10;;;;;;;;;;;;;;;7.63;100.00;99554.78;5021309;28;19932;-82
2023/12/27 19:28:35;;;;;;;;;;;;;;;7.67;100.00;99548.47;5042224;28;20346;-88
2023/12/27 19:31:01;;;;;;;;;;;;;;;7.73;100.00;99550.06;5042438;28;19921;-85